sensor_id;sensor_type;location;lat;lon;timestamp;pressure;altitude;pressure_sealevel;temperature;humidity
61961;BME280;47923;42.506;24.192;2022-11-20T00:00:55;94846.72;;;9.33;97.19
61961;BME280;47923;42.506;24.192;2022-11-20T00:03:21;94539.16;;;7.31;97.59
61961;BME280;47923;42.506;24.192;2022-11-20T00:05:47;94974.34;;;10.23;97.67
61961;BME280;47923;42.506;24.192;2022-11-20T00:08:13;94927.56;;;9.86;96.98
61961;BME280;47923;42.506;24.192;2022-11-20T00:10:39;94988.34;;;10.06;97.01
61961;BME280;47923;42.506;24.192;2022-11-20T00:13:06;94625.34;;;7.65;96.44
61961;BME280;47923;42.506;24.192;2022-11-20T00:15:33;94969.59;;;9.87;96.43
61961;BME280;47923;42.506;24.192;2022-11-20T00:17:59;95009.19;;;9.79;96.81
61961;BME280;47923;42.506;24.192;2022-11-20T00:20:25;94858.38;;;8.88;97.40
61961;BME280;47923;42.506;24.192;2022-11-20T00:22:50;94483.94;;;6.46;97.26
61961;BME280;47923;42.506;24.192;2022-11-20T00:25:16;94973.94;;;9.68;98.38
61961;BME280;47923;42.506;24.192;2022-11-20T00:27:45;94968.97;;;9.71;99.89
61961;BME280;47923;42.506;24.192;2022-11-20T00:30:11;94600.59;;;7.33;99.57
61961;BME280;47923;42.506;24.192;2022-11-20T00:32:37;94977.22;;;9.81;100.00
61961;BME280;47923;42.506;24.192;2022-11-20T00:35:03;94969.13;;;9.81;100.00
61961;BME280;47923;42.506;24.192;2022-11-20T00:37:29;94624.78;;;7.33;99.47
61961;BME280;47923;42.506;24.192;2022-11-20T00:39:54;94866.09;;;8.89;99.43
61961;BME280;47923;42.506;24.192;2022-11-20T00:42:20;94965.03;;;9.64;99.98
61961;BME280;47923;42.506;24.192;2022-11-20T00:44:46;94969.69;;;9.67;100.00
61961;BME280;47923;42.506;24.192;2022-11-20T00:47:11;94585.69;;;7.12;100.00
61961;BME280;47923;42.506;24.192;2022-11-20T00:49:37;94948.28;;;9.52;99.81
61961;BME280;47923;42.506;24.192;2022-11-20T00:52:03;94260.59;;;5.03;99.55
61961;BME280;47923;42.506;24.192;2022-11-20T00:54:29;94393.44;;;5.62;99.28
61961;BME280;47923;42.506;24.192;2022-11-20T00:56:54;94975.75;;;9.61;99.70
61961;BME280;47923;42.506;24.192;2022-11-20T00:59:20;94999.25;;;9.60;99.53
61961;BME280;47923;42.506;24.192;2022-11-20T01:01:46;94968.81;;;9.60;100.00
61961;BME280;47923;42.506;24.192;2022-11-20T01:04:12;94952.03;;;9.70;99.82
61961;BME280;47923;42.506;24.192;2022-11-20T01:06:38;94947.53;;;9.81;99.72
61961;BME280;47923;42.506;24.192;2022-11-20T01:09:08;94622.84;;;8.02;100.00
61961;BME280;47923;42.506;24.192;2022-11-20T01:11:37;94231.56;;;5.43;98.06
61961;BME280;47923;42.506;24.192;2022-11-20T01:14:05;94873.69;;;9.93;98.03
61961;BME280;47923;42.506;24.192;2022-11-20T01:16:37;94936.66;;;10.34;97.61
61961;BME280;47923;42.506;24.192;2022-11-20T01:19:05;94476.06;;;7.22;96.79
61961;BME280;47923;42.506;24.192;2022-11-20T01:21:33;94662.88;;;8.30;96.79
61961;BME280;47923;42.506;24.192;2022-11-20T01:24:02;94261.78;;;5.63;95.96
61961;BME280;47923;42.506;24.192;2022-11-20T01:26:34;94954.44;;;10.09;97.01
61961;BME280;47923;42.506;24.192;2022-11-20T01:29:00;94948.56;;;10.00;96.98
61961;BME280;47923;42.506;24.192;2022-11-20T01:31:32;94942.28;;;9.92;97.36
61961;BME280;47923;42.506;24.192;2022-11-20T01:34:04;94947.31;;;9.93;97.64
61961;BME280;47923;42.506;24.192;2022-11-20T01:36:31;94935.00;;;9.96;97.42
61961;BME280;47923;42.506;24.192;2022-11-20T01:38:59;94935.75;;;9.93;97.68
61961;BME280;47923;42.506;24.192;2022-11-20T01:41:26;94930.63;;;9.84;97.22
61961;BME280;47923;42.506;24.192;2022-11-20T01:44:13;94643.00;;;7.89;97.36
61961;BME280;47923;42.506;24.192;2022-11-20T01:46:51;94920.31;;;9.63;97.57
61961;BME280;47923;42.506;24.192;2022-11-20T01:52:02;94674.19;;;7.70;97.59
61961;BME280;47923;42.506;24.192;2022-11-20T01:54:36;94904.72;;;9.50;97.63
61961;BME280;47923;42.506;24.192;2022-11-20T01:57:06;94898.97;;;9.51;98.23
61961;BME280;47923;42.506;24.192;2022-11-20T01:59:37;94904.34;;;9.51;99.35
61961;BME280;47923;42.506;24.192;2022-11-20T02:02:06;94905.09;;;9.48;98.80
61961;BME280;47923;42.506;24.192;2022-11-20T02:04:32;94516.94;;;6.88;98.32
61961;BME280;47923;42.506;24.192;2022-11-20T02:07:02;94768.16;;;8.51;99.38
61961;BME280;47923;42.506;24.192;2022-11-20T02:09:30;94886.47;;;9.39;99.86
61961;BME280;47923;42.506;24.192;2022-11-20T02:11:57;94758.75;;;8.38;99.00
61961;BME280;47923;42.506;24.192;2022-11-20T02:14:24;94887.50;;;9.31;99.42
61961;BME280;47923;42.506;24.192;2022-11-20T02:16:50;94622.81;;;7.30;98.98
61961;BME280;47923;42.506;24.192;2022-11-20T02:22:00;94878.22;;;9.55;100.00
61961;BME280;47923;42.506;24.192;2022-11-20T02:24:27;94488.63;;;7.14;100.00
61961;BME280;47923;42.506;24.192;2022-11-20T02:27:06;94624.59;;;7.91;100.00
61961;BME280;47923;42.506;24.192;2022-11-20T02:29:46;94881.00;;;10.26;100.00
61961;BME280;47923;42.506;24.192;2022-11-20T02:32:23;94875.38;;;10.38;98.01
61961;BME280;47923;42.506;24.192;2022-11-20T02:34:49;94874.34;;;10.54;97.47
61961;BME280;47923;42.506;24.192;2022-11-20T02:37:15;94694.94;;;9.29;97.17
61961;BME280;47923;42.506;24.192;2022-11-20T02:39:42;94815.28;;;10.11;96.64
61961;BME280;47923;42.506;24.192;2022-11-20T02:42:10;94892.50;;;10.57;96.28
61961;BME280;47923;42.506;24.192;2022-11-20T02:44:36;94888.69;;;10.58;96.10
61961;BME280;47923;42.506;24.192;2022-11-20T02:47:01;94498.44;;;7.56;96.25
61961;BME280;47923;42.506;24.192;2022-11-20T02:49:27;94805.25;;;10.12;97.00
61961;BME280;47923;42.506;24.192;2022-11-20T02:51:53;94806.19;;;10.27;96.66
61961;BME280;47923;42.506;24.192;2022-11-20T02:54:18;94357.88;;;6.95;95.67
61961;BME280;47923;42.506;24.192;2022-11-20T02:56:44;94233.09;;;6.32;95.09
61961;BME280;47923;42.506;24.192;2022-11-20T02:59:10;94894.94;;;10.69;95.17
61961;BME280;47923;42.506;24.192;2022-11-20T03:01:36;94909.63;;;10.68;95.09
61961;BME280;47923;42.506;24.192;2022-11-20T03:04:02;94851.44;;;10.37;95.46
61961;BME280;47923;42.506;24.192;2022-11-20T03:06:28;94622.16;;;8.62;95.08
61961;BME280;47923;42.506;24.192;2022-11-20T03:08:54;94883.69;;;10.63;95.37
61961;BME280;47923;42.506;24.192;2022-11-20T03:11:20;94898.44;;;10.69;95.68
61961;BME280;47923;42.506;24.192;2022-11-20T03:13:46;94378.25;;;7.26;94.58
61961;BME280;47923;42.506;24.192;2022-11-20T03:16:20;94899.25;;;10.73;95.46
61961;BME280;47923;42.506;24.192;2022-11-20T03:18:46;94900.09;;;10.81;95.48
61961;BME280;47923;42.506;24.192;2022-11-20T03:21:12;94434.69;;;7.83;94.00
61961;BME280;47923;42.506;24.192;2022-11-20T03:23:39;94887.44;;;10.92;94.43
61961;BME280;47923;42.506;24.192;2022-11-20T03:28:34;94903.06;;;11.13;92.84
61961;BME280;47923;42.506;24.192;2022-11-20T03:31:08;94879.88;;;11.16;93.38
61961;BME280;47923;42.506;24.192;2022-11-20T03:33:38;94901.56;;;11.23;91.49
61961;BME280;47923;42.506;24.192;2022-11-20T03:36:05;94920.25;;;11.42;91.33
61961;BME280;47923;42.506;24.192;2022-11-20T03:38:31;94608.22;;;9.20;90.63
61961;BME280;47923;42.506;24.192;2022-11-20T03:41:05;94427.66;;;8.04;90.90
61961;BME280;47923;42.506;24.192;2022-11-20T03:43:32;94227.47;;;6.68;90.06
61961;BME280;47923;42.506;24.192;2022-11-20T03:45:58;94866.47;;;11.26;90.77
61961;BME280;47923;42.506;24.192;2022-11-20T03:48:24;94911.97;;;11.76;89.78
61961;BME280;47923;42.506;24.192;2022-11-20T03:50:51;94848.78;;;11.43;89.20
61961;BME280;47923;42.506;24.192;2022-11-20T03:53:18;94636.00;;;10.09;88.15
61961;BME280;47923;42.506;24.192;2022-11-20T03:55:44;94873.63;;;11.63;87.98
61961;BME280;47923;42.506;24.192;2022-11-20T03:58:10;94230.03;;;7.17;87.82
61961;BME280;47923;42.506;24.192;2022-11-20T04:00:36;94915.56;;;11.91;87.84
61961;BME280;47923;42.506;24.192;2022-11-20T04:03:02;94838.38;;;11.49;87.48
61961;BME280;47923;42.506;24.192;2022-11-20T04:05:27;94861.34;;;11.76;86.91
61961;BME280;47923;42.506;24.192;2022-11-20T04:07:54;94571.59;;;9.56;86.18
61961;BME280;47923;42.506;24.192;2022-11-20T04:10:19;94917.28;;;12.34;84.99
61961;BME280;47923;42.506;24.192;2022-11-20T04:12:45;94926.59;;;12.44;84.71
61961;BME280;47923;42.506;24.192;2022-11-20T04:15:11;94654.53;;;10.65;84.36
61961;BME280;47923;42.506;24.192;2022-11-20T04:17:37;94921.94;;;12.41;84.58
61961;BME280;47923;42.506;24.192;2022-11-20T04:20:03;94881.25;;;12.12;84.71
61961;BME280;47923;42.506;24.192;2022-11-20T04:22:29;94904.88;;;12.23;85.31
61961;BME280;47923;42.506;24.192;2022-11-20T04:24:54;94912.22;;;12.26;85.59
61961;BME280;47923;42.506;24.192;2022-11-20T04:27:20;94683.84;;;10.67;85.08
61961;BME280;47923;42.506;24.192;2022-11-20T04:29:46;94667.13;;;10.43;86.26
61961;BME280;47923;42.506;24.192;2022-11-20T04:32:12;94650.09;;;10.36;86.21
61961;BME280;47923;42.506;24.192;2022-11-20T04:34:38;94933.81;;;12.08;86.34
61961;BME280;47923;42.506;24.192;2022-11-20T04:37:03;94870.16;;;11.62;87.08
61961;BME280;47923;42.506;24.192;2022-11-20T04:39:29;94694.13;;;10.47;86.70
61961;BME280;47923;42.506;24.192;2022-11-20T04:41:55;94944.19;;;11.95;86.77
61961;BME280;47923;42.506;24.192;2022-11-20T04:44:40;94933.31;;;11.84;87.13
61961;BME280;47923;42.506;24.192;2022-11-20T04:47:05;94875.44;;;11.45;87.21
61961;BME280;47923;42.506;24.192;2022-11-20T04:49:31;94720.47;;;10.16;87.50
61961;BME280;47923;42.506;24.192;2022-11-20T04:51:58;94908.78;;;11.59;87.49
61961;BME280;47923;42.506;24.192;2022-11-20T04:54:23;94918.47;;;11.64;88.22
61961;BME280;47923;42.506;24.192;2022-11-20T04:56:49;94556.25;;;8.82;87.99
61961;BME280;47923;42.506;24.192;2022-11-20T04:59:15;94916.06;;;11.52;88.83
61961;BME280;47923;42.506;24.192;2022-11-20T05:01:41;94891.53;;;11.20;88.87
61961;BME280;47923;42.506;24.192;2022-11-20T05:04:07;94371.81;;;7.61;88.65
61961;BME280;47923;42.506;24.192;2022-11-20T05:06:33;94828.06;;;10.55;89.24
61961;BME280;47923;42.506;24.192;2022-11-20T05:08:59;94914.13;;;11.01;91.57
61961;BME280;47923;42.506;24.192;2022-11-20T05:11:26;94762.00;;;9.67;91.69
61961;BME280;47923;42.506;24.192;2022-11-20T05:13:54;94201.66;;;5.83;91.24
61961;BME280;47923;42.506;24.192;2022-11-20T05:16:22;94689.31;;;8.77;91.53
61961;BME280;47923;42.506;24.192;2022-11-20T05:18:49;94655.56;;;8.87;92.07
61961;BME280;47923;42.506;24.192;2022-11-20T05:21:15;94201.25;;;5.81;91.93
61961;BME280;47923;42.506;24.192;2022-11-20T05:23:41;94877.63;;;10.33;92.33
61961;BME280;47923;42.506;24.192;2022-11-20T05:26:12;94673.38;;;8.95;92.71
61961;BME280;47923;42.506;24.192;2022-11-20T05:28:38;94871.78;;;10.27;93.52
61961;BME280;47923;42.506;24.192;2022-11-20T05:31:12;94790.97;;;9.74;93.00
61961;BME280;47923;42.506;24.192;2022-11-20T05:33:41;94802.59;;;9.78;93.16
61961;BME280;47923;42.506;24.192;2022-11-20T05:36:07;94909.72;;;10.41;93.68
61961;BME280;47923;42.506;24.192;2022-11-20T05:38:33;94922.56;;;10.51;94.39
61961;BME280;47923;42.506;24.192;2022-11-20T05:41:09;94915.28;;;10.56;93.99
61961;BME280;47923;42.506;24.192;2022-11-20T05:43:37;94602.78;;;8.49;93.47
61961;BME280;47923;42.506;24.192;2022-11-20T05:46:03;94673.88;;;9.04;93.40
61961;BME280;47923;42.506;24.192;2022-11-20T05:48:30;94616.91;;;8.72;92.79
61961;BME280;47923;42.506;24.192;2022-11-20T05:51:00;94929.09;;;10.88;93.24
61961;BME280;47923;42.506;24.192;2022-11-20T05:53:26;94841.78;;;10.36;92.67
61961;BME280;47923;42.506;24.192;2022-11-20T05:56:04;94380.81;;;7.42;92.43
61961;BME280;47923;42.506;24.192;2022-11-20T05:58:31;94817.19;;;10.48;91.27
61961;BME280;47923;42.506;24.192;2022-11-20T06:01:24;94594.81;;;9.27;89.74
61961;BME280;47923;42.506;24.192;2022-11-20T06:03:50;94642.03;;;9.51;89.19
61961;BME280;47923;42.506;24.192;2022-11-20T06:06:19;94938.72;;;11.84;88.88
61961;BME280;47923;42.506;24.192;2022-11-20T06:08:45;94839.38;;;11.23;87.57
61961;BME280;47923;42.506;24.192;2022-11-20T06:11:12;94921.47;;;12.14;86.62
61961;BME280;47923;42.506;24.192;2022-11-20T06:13:41;94327.53;;;8.22;85.21
61961;BME280;47923;42.506;24.192;2022-11-20T06:16:07;94729.91;;;10.88;84.79
61961;BME280;47923;42.506;24.192;2022-11-20T06:18:33;94946.41;;;12.69;84.24
61961;BME280;47923;42.506;24.192;2022-11-20T06:21:00;94939.88;;;12.88;82.60
61961;BME280;47923;42.506;24.192;2022-11-20T06:23:28;94616.03;;;10.90;81.80
61961;BME280;47923;42.506;24.192;2022-11-20T06:25:55;94741.53;;;11.86;80.38
61961;BME280;47923;42.506;24.192;2022-11-20T06:28:20;94728.84;;;13.92;74.01
61961;BME280;47923;42.506;24.192;2022-11-20T06:30:47;94442.50;;;14.34;63.10
61961;BME280;47923;42.506;24.192;2022-11-20T06:33:13;94966.16;;;18.27;60.45
61961;BME280;47923;42.506;24.192;2022-11-20T06:35:39;94855.50;;;16.48;63.05
61961;BME280;47923;42.506;24.192;2022-11-20T06:38:05;94672.22;;;14.87;64.82
61961;BME280;47923;42.506;24.192;2022-11-20T06:40:31;94608.19;;;14.38;65.67
61961;BME280;47923;42.506;24.192;2022-11-20T06:42:56;94524.53;;;13.81;65.50
61961;BME280;47923;42.506;24.192;2022-11-20T06:45:22;94397.81;;;12.74;66.20
61961;BME280;47923;42.506;24.192;2022-11-20T06:47:48;94593.66;;;13.69;67.50
61961;BME280;47923;42.506;24.192;2022-11-20T06:50:14;94946.72;;;16.06;68.71
61961;BME280;47923;42.506;24.192;2022-11-20T06:52:40;94946.22;;;16.14;67.99
61961;BME280;47923;42.506;24.192;2022-11-20T06:55:06;94937.19;;;16.55;67.23
61961;BME280;47923;42.506;24.192;2022-11-20T06:57:32;94890.50;;;16.53;65.57
61961;BME280;47923;42.506;24.192;2022-11-20T07:00:07;94399.03;;;13.25;65.55
61961;BME280;47923;42.506;24.192;2022-11-20T07:02:33;94674.09;;;14.94;65.46
61961;BME280;47923;42.506;24.192;2022-11-20T07:04:59;94638.56;;;15.42;63.48
61961;BME280;47923;42.506;24.192;2022-11-20T07:07:25;94932.03;;;19.93;57.26
61961;BME280;47923;42.506;24.192;2022-11-20T07:09:51;94940.53;;;22.66;47.70
61961;BME280;47923;42.506;24.192;2022-11-20T07:12:17;94667.81;;;22.60;43.58
61961;BME280;47923;42.506;24.192;2022-11-20T07:14:43;94467.00;;;22.11;39.79
61961;BME280;47923;42.506;24.192;2022-11-20T07:17:09;94710.03;;;23.80;38.82
61961;BME280;47923;42.506;24.192;2022-11-20T07:19:35;94492.00;;;20.70;40.89
61961;BME280;47923;42.506;24.192;2022-11-20T07:22:01;94282.03;;;18.36;45.26
61961;BME280;47923;42.506;24.192;2022-11-20T07:24:26;94913.16;;;21.20;47.30
61961;BME280;47923;42.506;24.192;2022-11-20T07:26:52;94958.13;;;20.13;51.34
61961;BME280;47923;42.506;24.192;2022-11-20T07:29:18;94609.72;;;16.73;55.31
61961;BME280;47923;42.506;24.192;2022-11-20T07:31:43;94931.19;;;18.38;57.45
61961;BME280;47923;42.506;24.192;2022-11-20T07:34:09;94908.81;;;18.23;58.12
61961;BME280;47923;42.506;24.192;2022-11-20T07:36:35;94498.81;;;15.26;58.52
61961;BME280;47923;42.506;24.192;2022-11-20T07:39:01;94932.97;;;18.05;59.18
61961;BME280;47923;42.506;24.192;2022-11-20T07:41:27;94805.69;;;17.21;59.90
61961;BME280;47923;42.506;24.192;2022-11-20T07:43:55;94670.13;;;16.21;60.03
61961;BME280;47923;42.506;24.192;2022-11-20T07:46:21;94847.81;;;16.97;60.28
61961;BME280;47923;42.506;24.192;2022-11-20T07:48:47;94953.47;;;18.17;60.29
61961;BME280;47923;42.506;24.192;2022-11-20T07:51:13;94956.25;;;18.93;58.30
61961;BME280;47923;42.506;24.192;2022-11-20T07:53:39;94600.28;;;17.17;54.26
61961;BME280;47923;42.506;24.192;2022-11-20T07:56:05;94646.38;;;17.71;54.63
61961;BME280;47923;42.506;24.192;2022-11-20T07:58:31;94332.22;;;17.09;50.47
61961;BME280;47923;42.506;24.192;2022-11-20T08:01:03;94397.22;;;19.91;45.66
61961;BME280;47923;42.506;24.192;2022-11-20T08:03:29;94954.56;;;25.11;42.06
61961;BME280;47923;42.506;24.192;2022-11-20T08:05:58;94805.44;;;25.74;37.14
61961;BME280;47923;42.506;24.192;2022-11-20T08:08:25;94802.28;;;26.20;35.66
61961;BME280;47923;42.506;24.192;2022-11-20T08:10:51;94700.06;;;26.60;34.25
61961;BME280;47923;42.506;24.192;2022-11-20T08:13:17;94917.38;;;28.44;32.67
61961;BME280;47923;42.506;24.192;2022-11-20T08:16:01;94464.78;;;25.46;32.35
61961;BME280;47923;42.506;24.192;2022-11-20T08:18:28;94950.91;;;29.39;31.36
61961;BME280;47923;42.506;24.192;2022-11-20T08:20:53;94720.38;;;29.09;30.38
61961;BME280;47923;42.506;24.192;2022-11-20T08:23:19;94942.47;;;30.02;30.57
61961;BME280;47923;42.506;24.192;2022-11-20T08:25:49;94555.09;;;27.10;29.54
61961;BME280;47923;42.506;24.192;2022-11-20T08:28:15;94876.25;;;29.37;29.60
61961;BME280;47923;42.506;24.192;2022-11-20T08:30:40;94958.38;;;29.53;29.75
61961;BME280;47923;42.506;24.192;2022-11-20T08:33:08;94941.09;;;28.66;31.20
61961;BME280;47923;42.506;24.192;2022-11-20T08:35:35;94669.34;;;25.31;31.81
61961;BME280;47923;42.506;24.192;2022-11-20T08:38:02;94937.66;;;25.18;34.18
61961;BME280;47923;42.506;24.192;2022-11-20T08:40:28;94940.06;;;24.28;36.11
61961;BME280;47923;42.506;24.192;2022-11-20T08:42:54;94504.31;;;19.32;40.47
61961;BME280;47923;42.506;24.192;2022-11-20T08:45:19;94560.13;;;19.77;41.47
61961;BME280;47923;42.506;24.192;2022-11-20T08:47:46;94945.25;;;21.23;44.42
61961;BME280;47923;42.506;24.192;2022-11-20T08:50:13;94593.91;;;17.96;46.75
61961;BME280;47923;42.506;24.192;2022-11-20T08:52:39;94941.13;;;20.19;47.54
61961;BME280;47923;42.506;24.192;2022-11-20T08:55:06;94654.22;;;18.54;47.62
61961;BME280;47923;42.506;24.192;2022-11-20T08:57:35;94841.78;;;19.53;47.92
61961;BME280;47923;42.506;24.192;2022-11-20T09:00:05;94940.31;;;20.05;49.09
61961;BME280;47923;42.506;24.192;2022-11-20T09:02:31;94930.91;;;19.90;49.61
61961;BME280;47923;42.506;24.192;2022-11-20T09:04:58;94929.81;;;19.55;51.13
61961;BME280;47923;42.506;24.192;2022-11-20T09:07:23;94919.28;;;19.86;50.43
61961;BME280;47923;42.506;24.192;2022-11-20T09:09:49;94572.28;;;18.34;48.73
61961;BME280;47923;42.506;24.192;2022-11-20T09:12:14;94923.06;;;21.43;46.13
61961;BME280;47923;42.506;24.192;2022-11-20T09:14:40;94936.00;;;21.68;45.48
61961;BME280;47923;42.506;24.192;2022-11-20T09:17:06;94496.34;;;19.64;43.09
61961;BME280;47923;42.506;24.192;2022-11-20T09:19:33;94519.00;;;20.37;41.60
61961;BME280;47923;42.506;24.192;2022-11-20T09:21:59;94918.97;;;23.26;40.40
61961;BME280;47923;42.506;24.192;2022-11-20T09:24:26;94946.00;;;23.81;38.93
61961;BME280;47923;42.506;24.192;2022-11-20T09:26:51;94875.44;;;23.52;39.33
61961;BME280;47923;42.506;24.192;2022-11-20T09:29:17;94663.94;;;23.16;38.13
61961;BME280;47923;42.506;24.192;2022-11-20T09:31:43;94897.84;;;24.83;37.38
61961;BME280;47923;42.506;24.192;2022-11-20T09:34:10;94893.19;;;24.98;37.19
61961;BME280;47923;42.506;24.192;2022-11-20T09:36:36;94386.66;;;22.16;35.45
61961;BME280;47923;42.506;24.192;2022-11-20T09:39:02;94609.00;;;23.12;36.11
61961;BME280;47923;42.506;24.192;2022-11-20T09:46:54;94875.19;;;24.23;36.60
61961;BME280;47923;42.506;24.192;2022-11-20T09:55:08;94868.19;;;24.92;36.01
61961;BME280;47923;42.506;24.192;2022-11-20T09:57:37;94879.09;;;25.62;35.40
61961;BME280;47923;42.506;24.192;2022-11-20T10:00:06;94867.25;;;25.38;35.74
61961;BME280;47923;42.506;24.192;2022-11-20T10:02:44;94888.22;;;24.69;36.38
61961;BME280;47923;42.506;24.192;2022-11-20T10:05:19;94775.25;;;22.47;39.22
61961;BME280;47923;42.506;24.192;2022-11-20T10:07:54;94883.84;;;22.77;40.83
61961;BME280;47923;42.506;24.192;2022-11-20T10:10:34;94885.28;;;22.16;41.88
61961;BME280;47923;42.506;24.192;2022-11-20T10:16:18;94714.19;;;21.21;42.27
61961;BME280;47923;42.506;24.192;2022-11-20T10:21:30;94867.22;;;21.46;44.55
61961;BME280;47923;42.506;24.192;2022-11-20T10:29:41;94518.06;;;18.91;45.26
61961;BME280;47923;42.506;24.192;2022-11-20T10:32:17;94859.78;;;20.83;45.83
61961;BME280;47923;42.506;24.192;2022-11-20T10:37:24;94516.78;;;18.66;45.39
61961;BME280;47923;42.506;24.192;2022-11-20T10:39:56;94615.91;;;19.57;45.80
61961;BME280;47923;42.506;24.192;2022-11-20T10:42:44;94734.34;;;20.03;46.01
61961;BME280;47923;42.506;24.192;2022-11-20T10:47:59;94767.44;;;20.76;46.15
61961;BME280;47923;42.506;24.192;2022-11-20T10:50:36;94176.28;;;16.82;45.47
61961;BME280;47923;42.506;24.192;2022-11-20T10:56:00;94837.72;;;20.74;47.25
61961;BME280;47923;42.506;24.192;2022-11-20T11:01:16;94837.91;;;20.54;48.25
61961;BME280;47923;42.506;24.192;2022-11-20T11:03:43;94839.88;;;20.53;47.98
61961;BME280;47923;42.506;24.192;2022-11-20T11:08:41;94785.47;;;20.10;48.23
61961;BME280;47923;42.506;24.192;2022-11-20T11:11:29;94818.94;;;20.18;48.88
61961;BME280;47923;42.506;24.192;2022-11-20T11:14:07;94816.22;;;20.30;48.12
61961;BME280;47923;42.506;24.192;2022-11-20T11:16:33;94833.25;;;19.96;49.00
61961;BME280;47923;42.506;24.192;2022-11-20T11:19:07;94754.66;;;19.64;48.29
61961;BME280;47923;42.506;24.192;2022-11-20T11:21:37;94847.56;;;19.87;48.39
61961;BME280;47923;42.506;24.192;2022-11-20T11:24:19;94601.41;;;18.41;48.93
61961;BME280;47923;42.506;24.192;2022-11-20T11:27:00;94822.34;;;19.80;49.53
61961;BME280;47923;42.506;24.192;2022-11-20T11:29:31;94709.41;;;19.14;49.45
61961;BME280;47923;42.506;24.192;2022-11-20T11:32:08;94457.38;;;17.44;49.98
61961;BME280;47923;42.506;24.192;2022-11-20T11:34:34;94237.94;;;15.91;49.60
61961;BME280;47923;42.506;24.192;2022-11-20T11:37:01;94779.19;;;19.97;48.98
61961;BME280;47923;42.506;24.192;2022-11-20T11:39:41;94496.03;;;18.65;47.55
61961;BME280;47923;42.506;24.192;2022-11-20T11:42:12;94557.06;;;19.08;47.54
61961;BME280;47923;42.506;24.192;2022-11-20T11:44:45;94406.34;;;17.73;47.49
61961;BME280;47923;42.506;24.192;2022-11-20T11:56:06;94793.38;;;20.08;49.57
61961;BME280;47923;42.506;24.192;2022-11-20T11:58:51;94616.69;;;18.71;50.37
61961;BME280;47923;42.506;24.192;2022-11-20T12:06:43;94664.47;;;18.50;51.82
61961;BME280;47923;42.506;24.192;2022-11-20T12:09:10;94750.56;;;18.94;52.05
61961;BME280;47923;42.506;24.192;2022-11-20T12:12:48;94803.00;;;19.25;52.73
61961;BME280;47923;42.506;24.192;2022-11-20T12:14:42;94801.81;;;19.10;53.21
61961;BME280;47923;42.506;24.192;2022-11-20T12:17:13;94410.03;;;16.45;53.57
61961;BME280;47923;42.506;24.192;2022-11-20T12:19:39;94662.41;;;18.05;54.16
61961;BME280;47923;42.506;24.192;2022-11-20T12:25:14;94803.38;;;18.59;54.67
61961;BME280;47923;42.506;24.192;2022-11-20T12:28:06;94804.91;;;18.60;54.31
61961;BME280;47923;42.506;24.192;2022-11-20T12:30:55;94401.06;;;16.05;54.26
61961;BME280;47923;42.506;24.192;2022-11-20T12:44:27;94810.31;;;18.63;50.78
61961;BME280;47923;42.506;24.192;2022-11-20T12:47:27;94727.41;;;18.14;50.22
61961;BME280;47923;42.506;24.192;2022-11-20T12:55:48;94806.38;;;18.64;49.10
61961;BME280;47923;42.506;24.192;2022-11-20T13:01:21;94807.53;;;18.67;50.05
61961;BME280;47923;42.506;24.192;2022-11-20T13:07:02;94818.22;;;18.58;50.67
61961;BME280;47923;42.506;24.192;2022-11-20T13:09:30;94823.53;;;18.48;51.04
61961;BME280;47923;42.506;24.192;2022-11-20T13:17:18;94824.44;;;18.42;51.36
61961;BME280;47923;42.506;24.192;2022-11-20T13:19:52;94835.34;;;18.26;54.60
61961;BME280;47923;42.506;24.192;2022-11-20T13:22:48;94365.41;;;14.82;54.14
61961;BME280;47923;42.506;24.192;2022-11-20T13:25:34;94507.25;;;15.62;56.73
61961;BME280;47923;42.506;24.192;2022-11-20T13:30:36;94765.88;;;16.77;61.99
61961;BME280;47923;42.506;24.192;2022-11-20T13:33:08;94875.00;;;17.27;62.81
61961;BME280;47923;42.506;24.192;2022-11-20T13:35:36;94701.88;;;15.46;63.40
61961;BME280;47923;42.506;24.192;2022-11-20T13:38:09;94876.25;;;16.69;63.66
61961;BME280;47923;42.506;24.192;2022-11-20T13:40:38;94481.34;;;13.94;62.71
61961;BME280;47923;42.506;24.192;2022-11-20T13:43:37;94847.75;;;16.43;62.60
61961;BME280;47923;42.506;24.192;2022-11-20T13:46:08;94564.47;;;14.67;62.14
61961;BME280;47923;42.506;24.192;2022-11-20T13:48:41;94845.78;;;16.47;62.04
61961;BME280;47923;42.506;24.192;2022-11-20T13:51:29;94846.97;;;16.46;62.54
61961;BME280;47923;42.506;24.192;2022-11-20T14:01:56;94824.56;;;16.00;65.67
61961;BME280;47923;42.506;24.192;2022-11-20T14:04:27;94819.53;;;15.99;65.55
61961;BME280;47923;42.506;24.192;2022-11-20T14:06:54;94752.75;;;15.53;65.46
61961;BME280;47923;42.506;24.192;2022-11-20T14:09:32;94806.22;;;15.70;66.30
61961;BME280;47923;42.506;24.192;2022-11-20T14:11:57;94807.66;;;15.44;67.79
61961;BME280;47923;42.506;24.192;2022-11-20T14:14:25;94796.50;;;15.35;68.51
61961;BME280;47923;42.506;24.192;2022-11-20T14:16:52;94297.56;;;12.15;68.45
61961;BME280;47923;42.506;24.192;2022-11-20T14:22:05;94679.38;;;14.71;68.75
61961;BME280;47923;42.506;24.192;2022-11-20T14:24:32;94640.88;;;14.31;68.42
61961;BME280;47923;42.506;24.192;2022-11-20T14:26:58;94709.28;;;14.71;69.09
61961;BME280;47923;42.506;24.192;2022-11-20T14:29:34;94625.84;;;14.19;69.46
61961;BME280;47923;42.506;24.192;2022-11-20T14:32:01;94411.78;;;12.69;69.75
61961;BME280;47923;42.506;24.192;2022-11-20T14:34:30;94507.91;;;13.20;70.08
61961;BME280;47923;42.506;24.192;2022-11-20T14:37:01;94794.47;;;14.98;70.22
61961;BME280;47923;42.506;24.192;2022-11-20T14:39:35;94557.03;;;13.36;69.80
61961;BME280;47923;42.506;24.192;2022-11-20T14:42:02;94788.03;;;14.81;69.74
61961;BME280;47923;42.506;24.192;2022-11-20T14:44:34;94789.63;;;14.75;70.19